sensor_id;sensor_type;location;lat;lon;timestamp;P1;durP1;ratioP1;P2;durP2;ratioP2
77598;SDS011;66758;52.078;5.070;2023-06-22T00:00:50;10.33;;;5.40;;
77598;SDS011;66758;52.078;5.070;2023-06-22T00:03:17;8.18;;;5.07;;
77598;SDS011;66758;52.078;5.070;2023-06-22T00:05:43;10.07;;;4.63;;
77598;SDS011;66758;52.078;5.070;2023-06-22T00:08:09;9.05;;;5.47;;
77598;SDS011;66758;52.078;5.070;2023-06-22T00:10:36;11.00;;;5.07;;
77598;SDS011;66758;52.078;5.070;2023-06-22T00:13:01;9.43;;;5.15;;
77598;SDS011;66758;52.078;5.070;2023-06-22T00:15:27;9.33;;;5.70;;
77598;SDS011;66758;52.078;5.070;2023-06-22T00:17:52;11.40;;;5.07;;
77598;SDS011;66758;52.078;5.070;2023-06-22T00:20:18;10.33;;;4.87;;
77598;SDS011;66758;52.078;5.070;2023-06-22T00:22:44;8.60;;;4.50;;
77598;SDS011;66758;52.078;5.070;2023-06-22T00:25:11;9.95;;;5.10;;
77598;SDS011;66758;52.078;5.070;2023-06-22T00:27:37;8.30;;;4.82;;
77598;SDS011;66758;52.078;5.070;2023-06-22T00:30:03;7.85;;;5.13;;
77598;SDS011;66758;52.078;5.070;2023-06-22T00:32:29;8.17;;;4.80;;
77598;SDS011;66758;52.078;5.070;2023-06-22T00:34:54;9.75;;;5.05;;
77598;SDS011;66758;52.078;5.070;2023-06-22T00:37:20;8.43;;;5.80;;
77598;SDS011;66758;52.078;5.070;2023-06-22T00:39:47;11.15;;;6.80;;
77598;SDS011;66758;52.078;5.070;2023-06-22T00:42:13;9.37;;;6.17;;
77598;SDS011;66758;52.078;5.070;2023-06-22T00:44:39;11.27;;;6.72;;
77598;SDS011;66758;52.078;5.070;2023-06-22T00:47:05;11.82;;;6.72;;
77598;SDS011;66758;52.078;5.070;2023-06-22T00:49:31;13.07;;;7.77;;
77598;SDS011;66758;52.078;5.070;2023-06-22T00:51:57;11.52;;;7.35;;
77598;SDS011;66758;52.078;5.070;2023-06-22T00:54:22;12.57;;;7.23;;
77598;SDS011;66758;52.078;5.070;2023-06-22T00:56:55;11.88;;;6.63;;
77598;SDS011;66758;52.078;5.070;2023-06-22T00:59:23;11.30;;;6.60;;
77598;SDS011;66758;52.078;5.070;2023-06-22T01:01:49;12.53;;;7.53;;
77598;SDS011;66758;52.078;5.070;2023-06-22T01:04:15;13.55;;;7.45;;
77598;SDS011;66758;52.078;5.070;2023-06-22T01:06:42;12.33;;;7.37;;
77598;SDS011;66758;52.078;5.070;2023-06-22T01:09:14;11.35;;;7.05;;
77598;SDS011;66758;52.078;5.070;2023-06-22T01:11:45;13.85;;;7.95;;
77598;SDS011;66758;52.078;5.070;2023-06-22T01:17:42;14.47;;;8.10;;
77598;SDS011;66758;52.078;5.070;2023-06-22T01:20:09;14.88;;;8.75;;
77598;SDS011;66758;52.078;5.070;2023-06-22T01:23:11;13.82;;;7.55;;
77598;SDS011;66758;52.078;5.070;2023-06-22T01:31:18;13.77;;;7.93;;
77598;SDS011;66758;52.078;5.070;2023-06-22T01:33:47;13.32;;;7.93;;
77598;SDS011;66758;52.078;5.070;2023-06-22T01:36:16;16.38;;;8.38;;
77598;SDS011;66758;52.078;5.070;2023-06-22T01:38:43;15.18;;;7.90;;
77598;SDS011;66758;52.078;5.070;2023-06-22T01:41:10;18.80;;;9.85;;
77598;SDS011;66758;52.078;5.070;2023-06-22T01:43:36;16.00;;;9.07;;
77598;SDS011;66758;52.078;5.070;2023-06-22T01:46:02;17.77;;;9.30;;
77598;SDS011;66758;52.078;5.070;2023-06-22T01:48:29;15.30;;;9.77;;
77598;SDS011;66758;52.078;5.070;2023-06-22T01:50:55;16.20;;;9.32;;
77598;SDS011;66758;52.078;5.070;2023-06-22T01:53:21;16.77;;;10.07;;
77598;SDS011;66758;52.078;5.070;2023-06-22T01:55:47;17.23;;;10.40;;
77598;SDS011;66758;52.078;5.070;2023-06-22T01:58:13;15.37;;;9.57;;
77598;SDS011;66758;52.078;5.070;2023-06-22T02:00:39;15.55;;;9.15;;
77598;SDS011;66758;52.078;5.070;2023-06-22T02:03:08;15.77;;;9.48;;
77598;SDS011;66758;52.078;5.070;2023-06-22T02:05:38;14.85;;;10.10;;
77598;SDS011;66758;52.078;5.070;2023-06-22T02:11:00;15.32;;;9.25;;
77598;SDS011;66758;52.078;5.070;2023-06-22T02:13:28;20.95;;;10.57;;
77598;SDS011;66758;52.078;5.070;2023-06-22T02:15:55;16.85;;;10.57;;
77598;SDS011;66758;52.078;5.070;2023-06-22T02:18:22;20.20;;;10.18;;
77598;SDS011;66758;52.078;5.070;2023-06-22T02:20:47;18.60;;;10.60;;
77598;SDS011;66758;52.078;5.070;2023-06-22T02:23:13;18.00;;;10.33;;
77598;SDS011;66758;52.078;5.070;2023-06-22T02:25:39;18.23;;;10.03;;
77598;SDS011;66758;52.078;5.070;2023-06-22T02:28:04;20.40;;;10.17;;
77598;SDS011;66758;52.078;5.070;2023-06-22T02:30:30;17.23;;;10.63;;
77598;SDS011;66758;52.078;5.070;2023-06-22T02:32:56;17.77;;;10.00;;
77598;SDS011;66758;52.078;5.070;2023-06-22T02:35:30;18.50;;;9.60;;
77598;SDS011;66758;52.078;5.070;2023-06-22T02:38:00;18.98;;;10.93;;
77598;SDS011;66758;52.078;5.070;2023-06-22T02:40:27;19.27;;;10.60;;
77598;SDS011;66758;52.078;5.070;2023-06-22T02:42:54;18.65;;;9.73;;
77598;SDS011;66758;52.078;5.070;2023-06-22T02:45:20;18.30;;;10.60;;
77598;SDS011;66758;52.078;5.070;2023-06-22T02:47:46;15.23;;;9.38;;
77598;SDS011;66758;52.078;5.070;2023-06-22T02:50:13;19.45;;;11.60;;
77598;SDS011;66758;52.078;5.070;2023-06-22T02:52:38;17.33;;;9.80;;
77598;SDS011;66758;52.078;5.070;2023-06-22T02:55:04;17.07;;;9.40;;
77598;SDS011;66758;52.078;5.070;2023-06-22T02:57:32;16.85;;;9.43;;
77598;SDS011;66758;52.078;5.070;2023-06-22T02:59:58;15.13;;;9.63;;
77598;SDS011;66758;52.078;5.070;2023-06-22T03:02:24;15.68;;;9.32;;
77598;SDS011;66758;52.078;5.070;2023-06-22T03:04:51;17.73;;;9.10;;
77598;SDS011;66758;52.078;5.070;2023-06-22T03:07:18;17.38;;;9.90;;
77598;SDS011;66758;52.078;5.070;2023-06-22T03:09:44;16.50;;;10.17;;
77598;SDS011;66758;52.078;5.070;2023-06-22T03:12:11;16.98;;;8.85;;
77598;SDS011;66758;52.078;5.070;2023-06-22T03:14:39;14.00;;;8.32;;
77598;SDS011;66758;52.078;5.070;2023-06-22T03:17:04;16.50;;;9.53;;
77598;SDS011;66758;52.078;5.070;2023-06-22T03:19:30;14.80;;;8.43;;
77598;SDS011;66758;52.078;5.070;2023-06-22T03:21:57;17.25;;;8.63;;
77598;SDS011;66758;52.078;5.070;2023-06-22T03:24:23;14.75;;;9.05;;
77598;SDS011;66758;52.078;5.070;2023-06-22T03:26:48;17.10;;;9.30;;
77598;SDS011;66758;52.078;5.070;2023-06-22T03:29:14;17.85;;;9.77;;
77598;SDS011;66758;52.078;5.070;2023-06-22T03:31:40;12.07;;;8.50;;
77598;SDS011;66758;52.078;5.070;2023-06-22T03:34:06;14.83;;;8.90;;
77598;SDS011;66758;52.078;5.070;2023-06-22T03:36:31;21.77;;;9.77;;
77598;SDS011;66758;52.078;5.070;2023-06-22T03:38:57;15.48;;;8.48;;
77598;SDS011;66758;52.078;5.070;2023-06-22T03:41:22;20.70;;;9.60;;
77598;SDS011;66758;52.078;5.070;2023-06-22T03:43:48;14.93;;;9.20;;
77598;SDS011;66758;52.078;5.070;2023-06-22T03:46:13;16.17;;;9.83;;
77598;SDS011;66758;52.078;5.070;2023-06-22T03:48:39;20.90;;;10.15;;
77598;SDS011;66758;52.078;5.070;2023-06-22T03:51:04;15.23;;;10.20;;
77598;SDS011;66758;52.078;5.070;2023-06-22T03:53:30;16.98;;;10.30;;
77598;SDS011;66758;52.078;5.070;2023-06-22T03:55:55;15.70;;;10.40;;
77598;SDS011;66758;52.078;5.070;2023-06-22T03:58:21;19.77;;;11.02;;
77598;SDS011;66758;52.078;5.070;2023-06-22T04:00:50;22.83;;;11.13;;
77598;SDS011;66758;52.078;5.070;2023-06-22T04:03:17;18.83;;;10.60;;
77598;SDS011;66758;52.078;5.070;2023-06-22T04:05:46;16.63;;;10.10;;
77598;SDS011;66758;52.078;5.070;2023-06-22T04:08:13;18.80;;;10.03;;
77598;SDS011;66758;52.078;5.070;2023-06-22T04:10:39;15.55;;;10.77;;
77598;SDS011;66758;52.078;5.070;2023-06-22T04:13:05;17.55;;;10.20;;
77598;SDS011;66758;52.078;5.070;2023-06-22T04:15:30;14.73;;;9.53;;
77598;SDS011;66758;52.078;5.070;2023-06-22T04:17:56;16.47;;;10.20;;
77598;SDS011;66758;52.078;5.070;2023-06-22T04:20:22;17.00;;;10.53;;
77598;SDS011;66758;52.078;5.070;2023-06-22T04:22:54;17.00;;;10.50;;
77598;SDS011;66758;52.078;5.070;2023-06-22T04:25:20;17.80;;;9.80;;
77598;SDS011;66758;52.078;5.070;2023-06-22T04:27:46;15.25;;;9.68;;
77598;SDS011;66758;52.078;5.070;2023-06-22T04:30:18;15.05;;;9.10;;
77598;SDS011;66758;52.078;5.070;2023-06-22T04:32:44;15.00;;;9.07;;
77598;SDS011;66758;52.078;5.070;2023-06-22T04:35:11;19.95;;;10.32;;
77598;SDS011;66758;52.078;5.070;2023-06-22T04:37:38;19.83;;;10.55;;
77598;SDS011;66758;52.078;5.070;2023-06-22T04:40:04;16.58;;;10.60;;
77598;SDS011;66758;52.078;5.070;2023-06-22T04:42:30;14.80;;;10.05;;
77598;SDS011;66758;52.078;5.070;2023-06-22T04:44:57;15.17;;;9.73;;
77598;SDS011;66758;52.078;5.070;2023-06-22T04:47:22;18.00;;;11.27;;
77598;SDS011;66758;52.078;5.070;2023-06-22T04:49:48;15.13;;;10.00;;
77598;SDS011;66758;52.078;5.070;2023-06-22T04:52:13;15.05;;;9.30;;
77598;SDS011;66758;52.078;5.070;2023-06-22T04:54:42;14.53;;;9.73;;
77598;SDS011;66758;52.078;5.070;2023-06-22T04:57:20;17.33;;;9.30;;
77598;SDS011;66758;52.078;5.070;2023-06-22T04:59:45;15.37;;;9.10;;
77598;SDS011;66758;52.078;5.070;2023-06-22T05:02:11;16.20;;;9.80;;
77598;SDS011;66758;52.078;5.070;2023-06-22T05:04:36;14.60;;;9.57;;
77598;SDS011;66758;52.078;5.070;2023-06-22T05:07:03;16.33;;;9.52;;
77598;SDS011;66758;52.078;5.070;2023-06-22T05:09:29;15.43;;;9.43;;
77598;SDS011;66758;52.078;5.070;2023-06-22T05:11:55;15.52;;;10.10;;
77598;SDS011;66758;52.078;5.070;2023-06-22T05:14:24;15.10;;;9.77;;
77598;SDS011;66758;52.078;5.070;2023-06-22T05:16:52;18.17;;;9.80;;
77598;SDS011;66758;52.078;5.070;2023-06-22T05:19:18;15.57;;;9.73;;
77598;SDS011;66758;52.078;5.070;2023-06-22T05:21:43;21.17;;;10.90;;
77598;SDS011;66758;52.078;5.070;2023-06-22T05:24:09;15.85;;;9.85;;
77598;SDS011;66758;52.078;5.070;2023-06-22T05:26:34;19.80;;;10.77;;
77598;SDS011;66758;52.078;5.070;2023-06-22T05:29:00;17.13;;;10.18;;
77598;SDS011;66758;52.078;5.070;2023-06-22T05:31:27;18.07;;;10.43;;
77598;SDS011;66758;52.078;5.070;2023-06-22T05:33:54;15.50;;;10.77;;
77598;SDS011;66758;52.078;5.070;2023-06-22T05:36:28;16.98;;;10.45;;
77598;SDS011;66758;52.078;5.070;2023-06-22T05:38:56;14.70;;;9.27;;
77598;SDS011;66758;52.078;5.070;2023-06-22T05:41:21;14.93;;;9.77;;
77598;SDS011;66758;52.078;5.070;2023-06-22T05:43:47;15.10;;;10.20;;
77598;SDS011;66758;52.078;5.070;2023-06-22T05:46:14;16.25;;;9.80;;
77598;SDS011;66758;52.078;5.070;2023-06-22T05:48:39;16.57;;;10.10;;
77598;SDS011;66758;52.078;5.070;2023-06-22T05:51:05;14.88;;;9.80;;
77598;SDS011;66758;52.078;5.070;2023-06-22T05:53:30;12.70;;;9.47;;
77598;SDS011;66758;52.078;5.070;2023-06-22T05:55:56;17.50;;;11.07;;
77598;SDS011;66758;52.078;5.070;2023-06-22T05:58:21;17.20;;;11.17;;
77598;SDS011;66758;52.078;5.070;2023-06-22T06:00:47;17.52;;;12.13;;
77598;SDS011;66758;52.078;5.070;2023-06-22T06:03:13;19.73;;;11.63;;
77598;SDS011;66758;52.078;5.070;2023-06-22T06:05:42;18.60;;;12.85;;
77598;SDS011;66758;52.078;5.070;2023-06-22T06:08:08;20.08;;;11.82;;
77598;SDS011;66758;52.078;5.070;2023-06-22T06:10:33;24.43;;;12.33;;
77598;SDS011;66758;52.078;5.070;2023-06-22T06:12:59;19.30;;;12.63;;
77598;SDS011;66758;52.078;5.070;2023-06-22T06:15:29;20.65;;;13.75;;
77598;SDS011;66758;52.078;5.070;2023-06-22T06:17:55;23.55;;;14.98;;
77598;SDS011;66758;52.078;5.070;2023-06-22T06:20:22;21.70;;;14.80;;
77598;SDS011;66758;52.078;5.070;2023-06-22T06:22:48;24.05;;;15.00;;
77598;SDS011;66758;52.078;5.070;2023-06-22T06:25:15;27.83;;;17.23;;
77598;SDS011;66758;52.078;5.070;2023-06-22T06:27:43;30.00;;;17.08;;
77598;SDS011;66758;52.078;5.070;2023-06-22T06:30:14;25.13;;;15.10;;
77598;SDS011;66758;52.078;5.070;2023-06-22T06:32:40;27.27;;;15.90;;
77598;SDS011;66758;52.078;5.070;2023-06-22T06:35:07;25.08;;;16.73;;
77598;SDS011;66758;52.078;5.070;2023-06-22T06:37:37;24.05;;;16.15;;
77598;SDS011;66758;52.078;5.070;2023-06-22T06:40:05;23.00;;;15.50;;
77598;SDS011;66758;52.078;5.070;2023-06-22T06:42:44;25.38;;;16.25;;
77598;SDS011;66758;52.078;5.070;2023-06-22T06:45:11;22.60;;;15.90;;
77598;SDS011;66758;52.078;5.070;2023-06-22T06:47:38;25.00;;;16.38;;
77598;SDS011;66758;52.078;5.070;2023-06-22T06:50:05;24.67;;;17.90;;
77598;SDS011;66758;52.078;5.070;2023-06-22T06:52:31;24.50;;;17.48;;
77598;SDS011;66758;52.078;5.070;2023-06-22T06:54:56;24.70;;;16.47;;
77598;SDS011;66758;52.078;5.070;2023-06-22T06:57:22;25.23;;;16.10;;
77598;SDS011;66758;52.078;5.070;2023-06-22T06:59:47;25.45;;;15.40;;
77598;SDS011;66758;52.078;5.070;2023-06-22T07:02:14;26.23;;;17.77;;
77598;SDS011;66758;52.078;5.070;2023-06-22T07:04:40;23.00;;;17.58;;
77598;SDS011;66758;52.078;5.070;2023-06-22T07:07:06;24.77;;;16.00;;
77598;SDS011;66758;52.078;5.070;2023-06-22T07:09:31;27.03;;;18.50;;
77598;SDS011;66758;52.078;5.070;2023-06-22T07:11:57;25.57;;;17.40;;
77598;SDS011;66758;52.078;5.070;2023-06-22T07:14:22;27.83;;;18.00;;
77598;SDS011;66758;52.078;5.070;2023-06-22T07:16:48;27.27;;;18.23;;
77598;SDS011;66758;52.078;5.070;2023-06-22T07:19:14;26.77;;;17.77;;
77598;SDS011;66758;52.078;5.070;2023-06-22T07:21:39;27.63;;;18.00;;
77598;SDS011;66758;52.078;5.070;2023-06-22T07:24:06;25.03;;;16.87;;
77598;SDS011;66758;52.078;5.070;2023-06-22T07:26:32;24.20;;;17.35;;
77598;SDS011;66758;52.078;5.070;2023-06-22T07:28:58;25.43;;;16.63;;
77598;SDS011;66758;52.078;5.070;2023-06-22T07:31:26;23.92;;;17.90;;
77598;SDS011;66758;52.078;5.070;2023-06-22T07:34:08;24.10;;;17.87;;
77598;SDS011;66758;52.078;5.070;2023-06-22T07:36:33;29.50;;;17.70;;
77598;SDS011;66758;52.078;5.070;2023-06-22T07:39:00;25.15;;;16.00;;
77598;SDS011;66758;52.078;5.070;2023-06-22T07:41:28;19.83;;;15.52;;
77598;SDS011;66758;52.078;5.070;2023-06-22T07:43:59;20.70;;;15.70;;
77598;SDS011;66758;52.078;5.070;2023-06-22T07:46:26;21.10;;;13.35;;
77598;SDS011;66758;52.078;5.070;2023-06-22T07:48:51;15.87;;;11.70;;
77598;SDS011;66758;52.078;5.070;2023-06-22T07:51:17;19.15;;;12.32;;
77598;SDS011;66758;52.078;5.070;2023-06-22T07:53:43;19.70;;;13.30;;
77598;SDS011;66758;52.078;5.070;2023-06-22T07:56:12;17.60;;;12.00;;
77598;SDS011;66758;52.078;5.070;2023-06-22T07:58:39;17.23;;;12.15;;
77598;SDS011;66758;52.078;5.070;2023-06-22T08:01:06;16.95;;;11.02;;
77598;SDS011;66758;52.078;5.070;2023-06-22T08:03:31;18.33;;;13.83;;
77598;SDS011;66758;52.078;5.070;2023-06-22T08:05:57;19.55;;;12.38;;
77598;SDS011;66758;52.078;5.070;2023-06-22T08:08:24;14.93;;;11.13;;
77598;SDS011;66758;52.078;5.070;2023-06-22T08:10:49;17.20;;;12.07;;
77598;SDS011;66758;52.078;5.070;2023-06-22T08:13:15;15.17;;;10.53;;
77598;SDS011;66758;52.078;5.070;2023-06-22T08:15:40;15.00;;;9.70;;
77598;SDS011;66758;52.078;5.070;2023-06-22T08:18:06;15.83;;;11.77;;
77598;SDS011;66758;52.078;5.070;2023-06-22T08:20:31;17.15;;;10.85;;
77598;SDS011;66758;52.078;5.070;2023-06-22T08:22:57;13.33;;;10.00;;
77598;SDS011;66758;52.078;5.070;2023-06-22T08:25:25;12.88;;;9.77;;
77598;SDS011;66758;52.078;5.070;2023-06-22T08:27:51;19.38;;;12.00;;
77598;SDS011;66758;52.078;5.070;2023-06-22T08:30:16;12.60;;;9.90;;
77598;SDS011;66758;52.078;5.070;2023-06-22T08:32:43;15.07;;;10.68;;
77598;SDS011;66758;52.078;5.070;2023-06-22T08:35:09;14.23;;;10.13;;
77598;SDS011;66758;52.078;5.070;2023-06-22T08:37:35;14.35;;;9.27;;
77598;SDS011;66758;52.078;5.070;2023-06-22T08:40:01;13.60;;;9.07;;
77598;SDS011;66758;52.078;5.070;2023-06-22T08:42:33;13.77;;;9.85;;
77598;SDS011;66758;52.078;5.070;2023-06-22T08:44:58;12.43;;;9.45;;
77598;SDS011;66758;52.078;5.070;2023-06-22T08:47:24;14.17;;;10.03;;
77598;SDS011;66758;52.078;5.070;2023-06-22T08:49:49;12.13;;;9.70;;
77598;SDS011;66758;52.078;5.070;2023-06-22T08:52:15;13.07;;;9.73;;
77598;SDS011;66758;52.078;5.070;2023-06-22T08:54:40;14.98;;;11.13;;
77598;SDS011;66758;52.078;5.070;2023-06-22T08:57:06;13.67;;;10.07;;
77598;SDS011;66758;52.078;5.070;2023-06-22T08:59:31;13.17;;;10.03;;
77598;SDS011;66758;52.078;5.070;2023-06-22T09:01:57;16.65;;;11.82;;
77598;SDS011;66758;52.078;5.070;2023-06-22T09:04:23;15.97;;;13.17;;
77598;SDS011;66758;52.078;5.070;2023-06-22T09:06:50;18.67;;;13.65;;
77598;SDS011;66758;52.078;5.070;2023-06-22T09:09:17;16.25;;;13.25;;
77598;SDS011;66758;52.078;5.070;2023-06-22T09:11:43;15.27;;;11.52;;
77598;SDS011;66758;52.078;5.070;2023-06-22T09:14:10;14.07;;;11.30;;
77598;SDS011;66758;52.078;5.070;2023-06-22T09:16:36;16.35;;;12.25;;
77598;SDS011;66758;52.078;5.070;2023-06-22T09:19:02;14.75;;;11.05;;
77598;SDS011;66758;52.078;5.070;2023-06-22T09:21:28;14.40;;;10.20;;
77598;SDS011;66758;52.078;5.070;2023-06-22T09:23:54;9.73;;;8.73;;
77598;SDS011;66758;52.078;5.070;2023-06-22T09:26:19;13.75;;;9.93;;
77598;SDS011;66758;52.078;5.070;2023-06-22T09:28:46;12.30;;;9.30;;
77598;SDS011;66758;52.078;5.070;2023-06-22T09:31:12;12.40;;;9.30;;
77598;SDS011;66758;52.078;5.070;2023-06-22T09:33:37;11.27;;;8.77;;
77598;SDS011;66758;52.078;5.070;2023-06-22T09:36:05;9.13;;;6.97;;
77598;SDS011;66758;52.078;5.070;2023-06-22T09:38:41;10.47;;;7.60;;
77598;SDS011;66758;52.078;5.070;2023-06-22T09:41:07;10.43;;;6.72;;
77598;SDS011;66758;52.078;5.070;2023-06-22T09:43:32;8.75;;;6.05;;
77598;SDS011;66758;52.078;5.070;2023-06-22T09:46:00;7.93;;;5.00;;
77598;SDS011;66758;52.078;5.070;2023-06-22T09:48:27;7.80;;;6.03;;
77598;SDS011;66758;52.078;5.070;2023-06-22T09:50:54;11.93;;;8.07;;
77598;SDS011;66758;52.078;5.070;2023-06-22T09:53:20;8.37;;;7.27;;
77598;SDS011;66758;52.078;5.070;2023-06-22T09:55:45;14.93;;;10.77;;
77598;SDS011;66758;52.078;5.070;2023-06-22T09:58:12;16.95;;;12.68;;
77598;SDS011;66758;52.078;5.070;2023-06-22T10:00:37;15.13;;;12.83;;
77598;SDS011;66758;52.078;5.070;2023-06-22T10:03:03;14.32;;;11.55;;
77598;SDS011;66758;52.078;5.070;2023-06-22T10:05:28;14.83;;;11.27;;
77598;SDS011;66758;52.078;5.070;2023-06-22T10:07:54;14.03;;;7.80;;
77598;SDS011;66758;52.078;5.070;2023-06-22T10:10:20;12.10;;;8.50;;
77598;SDS011;66758;52.078;5.070;2023-06-22T10:12:47;13.20;;;10.93;;
77598;SDS011;66758;52.078;5.070;2023-06-22T10:15:13;15.30;;;12.33;;
77598;SDS011;66758;52.078;5.070;2023-06-22T10:17:40;16.38;;;12.40;;
77598;SDS011;66758;52.078;5.070;2023-06-22T10:20:11;18.50;;;12.48;;
77598;SDS011;66758;52.078;5.070;2023-06-22T10:22:38;14.73;;;10.33;;
77598;SDS011;66758;52.078;5.070;2023-06-22T10:25:07;12.70;;;10.18;;
77598;SDS011;66758;52.078;5.070;2023-06-22T10:27:33;15.88;;;11.18;;
77598;SDS011;66758;52.078;5.070;2023-06-22T10:29:59;14.90;;;8.75;;
77598;SDS011;66758;52.078;5.070;2023-06-22T10:32:25;12.00;;;9.23;;
77598;SDS011;66758;52.078;5.070;2023-06-22T10:34:53;14.50;;;8.23;;
77598;SDS011;66758;52.078;5.070;2023-06-22T10:37:18;11.60;;;8.82;;
77598;SDS011;66758;52.078;5.070;2023-06-22T10:39:44;29.03;;;9.70;;
77598;SDS011;66758;52.078;5.070;2023-06-22T10:42:09;11.47;;;9.17;;
77598;SDS011;66758;52.078;5.070;2023-06-22T10:44:35;11.90;;;7.88;;
77598;SDS011;66758;52.078;5.070;2023-06-22T10:47:02;12.60;;;7.73;;
77598;SDS011;66758;52.078;5.070;2023-06-22T10:49:27;11.10;;;7.60;;
77598;SDS011;66758;52.078;5.070;2023-06-22T10:51:53;15.50;;;7.97;;
77598;SDS011;66758;52.078;5.070;2023-06-22T10:54:18;11.70;;;6.72;;
77598;SDS011;66758;52.078;5.070;2023-06-22T10:56:44;10.53;;;7.50;;
77598;SDS011;66758;52.078;5.070;2023-06-22T10:59:10;7.60;;;6.18;;
77598;SDS011;66758;52.078;5.070;2023-06-22T11:01:35;8.00;;;6.30;;
77598;SDS011;66758;52.078;5.070;2023-06-22T11:04:01;9.73;;;6.53;;
77598;SDS011;66758;52.078;5.070;2023-06-22T11:06:28;8.00;;;6.20;;
77598;SDS011;66758;52.078;5.070;2023-06-22T11:08:53;8.10;;;6.60;;
77598;SDS011;66758;52.078;5.070;2023-06-22T11:11:19;10.20;;;6.23;;
77598;SDS011;66758;52.078;5.070;2023-06-22T11:13:44;9.23;;;6.60;;
77598;SDS011;66758;52.078;5.070;2023-06-22T11:16:10;6.47;;;5.50;;
77598;SDS011;66758;52.078;5.070;2023-06-22T11:18:36;10.82;;;6.35;;
77598;SDS011;66758;52.078;5.070;2023-06-22T11:21:02;8.63;;;5.63;;
77598;SDS011;66758;52.078;5.070;2023-06-22T11:23:27;8.60;;;5.37;;
77598;SDS011;66758;52.078;5.070;2023-06-22T11:25:53;7.85;;;5.45;;
77598;SDS011;66758;52.078;5.070;2023-06-22T11:28:19;7.77;;;5.67;;
77598;SDS011;66758;52.078;5.070;2023-06-22T11:30:45;12.77;;;5.82;;
77598;SDS011;66758;52.078;5.070;2023-06-22T11:33:10;8.73;;;6.00;;
77598;SDS011;66758;52.078;5.070;2023-06-22T11:35:36;9.80;;;7.13;;
77598;SDS011;66758;52.078;5.070;2023-06-22T11:38:01;8.03;;;6.13;;
77598;SDS011;66758;52.078;5.070;2023-06-22T11:40:28;9.80;;;7.03;;
77598;SDS011;66758;52.078;5.070;2023-06-22T11:42:54;11.43;;;7.63;;
77598;SDS011;66758;52.078;5.070;2023-06-22T11:45:19;11.13;;;7.67;;
77598;SDS011;66758;52.078;5.070;2023-06-22T11:47:45;11.90;;;9.40;;
77598;SDS011;66758;52.078;5.070;2023-06-22T11:50:12;11.70;;;8.33;;
77598;SDS011;66758;52.078;5.070;2023-06-22T11:52:38;12.05;;;8.75;;
77598;SDS011;66758;52.078;5.070;2023-06-22T11:55:05;15.47;;;9.50;;
77598;SDS011;66758;52.078;5.070;2023-06-22T11:57:36;12.63;;;8.98;;
77598;SDS011;66758;52.078;5.070;2023-06-22T12:00:03;13.20;;;8.43;;
77598;SDS011;66758;52.078;5.070;2023-06-22T12:02:31;12.07;;;8.60;;
77598;SDS011;66758;52.078;5.070;2023-06-22T12:04:57;11.50;;;8.73;;
77598;SDS011;66758;52.078;5.070;2023-06-22T12:07:23;10.95;;;8.23;;
77598;SDS011;66758;52.078;5.070;2023-06-22T12:09:49;12.63;;;7.53;;
77598;SDS011;66758;52.078;5.070;2023-06-22T12:12:15;12.50;;;9.07;;
77598;SDS011;66758;52.078;5.070;2023-06-22T12:14:41;14.40;;;8.83;;
77598;SDS011;66758;52.078;5.070;2023-06-22T12:17:06;11.20;;;7.77;;
77598;SDS011;66758;52.078;5.070;2023-06-22T12:19:32;12.32;;;8.15;;
77598;SDS011;66758;52.078;5.070;2023-06-22T12:21:57;12.50;;;8.83;;
77598;SDS011;66758;52.078;5.070;2023-06-22T12:24:23;12.10;;;8.33;;
77598;SDS011;66758;52.078;5.070;2023-06-22T12:26:48;14.32;;;8.80;;
77598;SDS011;66758;52.078;5.070;2023-06-22T12:29:14;11.47;;;8.83;;
77598;SDS011;66758;52.078;5.070;2023-06-22T12:31:39;13.00;;;8.57;;
77598;SDS011;66758;52.078;5.070;2023-06-22T12:34:06;11.43;;;8.82;;
77598;SDS011;66758;52.078;5.070;2023-06-22T12:36:32;12.83;;;9.30;;
77598;SDS011;66758;52.078;5.070;2023-06-22T12:38:57;11.23;;;8.90;;
77598;SDS011;66758;52.078;5.070;2023-06-22T12:41:23;13.95;;;9.23;;
77598;SDS011;66758;52.078;5.070;2023-06-22T12:43:48;12.40;;;9.07;;
77598;SDS011;66758;52.078;5.070;2023-06-22T12:46:14;16.63;;;9.83;;
77598;SDS011;66758;52.078;5.070;2023-06-22T12:48:39;14.33;;;10.13;;
77598;SDS011;66758;52.078;5.070;2023-06-22T12:51:07;14.38;;;10.15;;
77598;SDS011;66758;52.078;5.070;2023-06-22T12:53:34;16.52;;;11.13;;
77598;SDS011;66758;52.078;5.070;2023-06-22T12:55:59;14.70;;;11.00;;
77598;SDS011;66758;52.078;5.070;2023-06-22T12:58:25;13.27;;;10.10;;
77598;SDS011;66758;52.078;5.070;2023-06-22T13:00:50;16.70;;;11.07;;
77598;SDS011;66758;52.078;5.070;2023-06-22T13:03:16;18.97;;;11.83;;
77598;SDS011;66758;52.078;5.070;2023-06-22T13:05:41;17.75;;;12.00;;
77598;SDS011;66758;52.078;5.070;2023-06-22T13:08:07;14.03;;;11.10;;
77598;SDS011;66758;52.078;5.070;2023-06-22T13:10:33;17.52;;;11.55;;
77598;SDS011;66758;52.078;5.070;2023-06-22T13:12:59;18.30;;;11.53;;
77598;SDS011;66758;52.078;5.070;2023-06-22T13:15:28;19.45;;;12.82;;
77598;SDS011;66758;52.078;5.070;2023-06-22T13:17:55;17.10;;;13.40;;
77598;SDS011;66758;52.078;5.070;2023-06-22T13:20:20;19.85;;;13.35;;
77598;SDS011;66758;52.078;5.070;2023-06-22T13:22:46;17.37;;;13.23;;
77598;SDS011;66758;52.078;5.070;2023-06-22T13:25:12;19.17;;;13.90;;
77598;SDS011;66758;52.078;5.070;2023-06-22T13:27:38;18.27;;;12.93;;
77598;SDS011;66758;52.078;5.070;2023-06-22T13:30:05;20.48;;;14.75;;
77598;SDS011;66758;52.078;5.070;2023-06-22T13:32:31;20.60;;;14.60;;
77598;SDS011;66758;52.078;5.070;2023-06-22T13:34:56;18.45;;;13.82;;
77598;SDS011;66758;52.078;5.070;2023-06-22T13:37:23;19.35;;;13.82;;
77598;SDS011;66758;52.078;5.070;2023-06-22T13:39:48;20.37;;;14.93;;
77598;SDS011;66758;52.078;5.070;2023-06-22T13:42:14;22.67;;;14.83;;
77598;SDS011;66758;52.078;5.070;2023-06-22T13:44:39;20.55;;;14.30;;
77598;SDS011;66758;52.078;5.070;2023-06-22T13:47:05;23.00;;;15.27;;
77598;SDS011;66758;52.078;5.070;2023-06-22T13:49:31;23.55;;;15.23;;
77598;SDS011;66758;52.078;5.070;2023-06-22T13:51:59;22.40;;;16.15;;
77598;SDS011;66758;52.078;5.070;2023-06-22T13:54:25;24.53;;;16.50;;
77598;SDS011;66758;52.078;5.070;2023-06-22T13:56:50;21.57;;;15.90;;
77598;SDS011;66758;52.078;5.070;2023-06-22T13:59:16;20.40;;;15.50;;
77598;SDS011;66758;52.078;5.070;2023-06-22T14:01:41;20.70;;;15.40;;
77598;SDS011;66758;52.078;5.070;2023-06-22T14:04:08;19.35;;;13.93;;
77598;SDS011;66758;52.078;5.070;2023-06-22T14:06:34;17.80;;;12.48;;
77598;SDS011;66758;52.078;5.070;2023-06-22T14:09:00;19.13;;;12.30;;
77598;SDS011;66758;52.078;5.070;2023-06-22T14:11:25;17.42;;;11.82;;
77598;SDS011;66758;52.078;5.070;2023-06-22T14:13:51;18.17;;;12.50;;
77598;SDS011;66758;52.078;5.070;2023-06-22T14:16:17;13.65;;;10.45;;
77598;SDS011;66758;52.078;5.070;2023-06-22T14:18:42;14.73;;;11.60;;
77598;SDS011;66758;52.078;5.070;2023-06-22T14:21:08;15.25;;;11.75;;
77598;SDS011;66758;52.078;5.070;2023-06-22T14:23:33;15.43;;;9.93;;
77598;SDS011;66758;52.078;5.070;2023-06-22T14:25:59;17.33;;;11.83;;
77598;SDS011;66758;52.078;5.070;2023-06-22T14:28:24;15.90;;;11.73;;
77598;SDS011;66758;52.078;5.070;2023-06-22T14:30:50;17.17;;;11.13;;
77598;SDS011;66758;52.078;5.070;2023-06-22T14:33:15;17.20;;;12.43;;
77598;SDS011;66758;52.078;5.070;2023-06-22T14:35:41;15.00;;;11.60;;